Time;durP1;ratioP1;P1;durP2;ratioP2;P2;SDS_P1;SDS_P2;PMS_P1;PMS_P2;Temp;Humidity;BMP_temperature;BMP_pressure;BME280_temperature;BME280_humidity;BME280_pressure;Samples;Min_cycle;Max_cycle;Signal;HPM_P1;HPM_P2
2023/03/10 00:02:15;;;;;;;;;;;1.80;99.90;;;;;;4943047;29;19927;-77
2023/03/10 00:04:40;;;;;;;;;;;1.70;99.90;;;;;;4943344;29;19926;-77
2023/03/10 00:07:06;;;;;;;;;;;1.70;99.90;;;;;;4941507;29;20267;-77
2023/03/10 00:09:31;;;;;;;;;;;1.70;99.90;;;;;;4947294;29;19941;-77
2023/03/10 00:11:57;;;;;;;;;;;1.70;99.90;;;;;;4947365;29;20282;-77
2023/03/10 00:14:22;;;;;;;;;;;1.70;99.90;;;;;;4948344;29;19931;-78
2023/03/10 00:16:51;;;;;;;;;;;2.60;99.90;;;;;;4944811;29;19930;-78
2023/03/10 00:19:19;;;;;;;;;;;1.70;99.90;;;;;;4946627;29;19934;-78
2023/03/10 00:21:45;;;;;;;;;;;1.70;99.90;;;;;;4951750;29;20426;-78
2023/03/10 00:24:10;;;;;;;;;;;1.70;99.90;;;;;;4948794;28;19982;-78
2023/03/10 00:26:37;;;;;;;;;;;1.70;99.90;;;;;;4951414;29;19973;-78
2023/03/10 00:29:03;;;;;;;;;;;1.70;99.90;;;;;;4948804;29;20017;-78
2023/03/10 00:31:30;;;;;;;;;;;1.70;99.90;;;;;;4947421;29;20010;-78
2023/03/10 00:33:56;;;;;;;;;;;1.70;99.90;;;;;;4944289;29;20009;-78
2023/03/10 00:36:22;;;;;;;;;;;1.80;99.90;;;;;;4947298;29;19934;-78
2023/03/10 00:38:48;;;;;;;;;;;1.80;99.90;;;;;;4947152;29;19931;-78
2023/03/10 00:41:15;;;;;;;;;;;4.50;99.90;;;;;;4946497;28;20017;-78
2023/03/10 00:43:41;;;;;;;;;;;1.70;99.90;;;;;;4947746;29;20065;-78
2023/03/10 00:46:06;;;;;;;;;;;1.80;99.90;;;;;;4943311;29;20408;-78
2023/03/10 00:48:32;;;;;;;;;;;1.80;99.90;;;;;;4950236;29;19926;-78
2023/03/10 00:50:58;;;;;;;;;;;2.80;99.90;;;;;;4943264;29;19927;-78
2023/03/10 00:53:24;;;;;;;;;;;1.80;99.90;;;;;;4947030;29;19930;-78
2023/03/10 00:55:56;;;;;;;;;;;1.70;99.90;;;;;;4944332;29;19939;-78
2023/03/10 00:58:22;;;;;;;;;;;1.80;99.90;;;;;;4950774;29;19927;-78
2023/03/10 01:00:47;;;;;;;;;;;3.50;99.90;;;;;;4947534;29;20260;-78
2023/03/10 01:03:13;;;;;;;;;;;1.80;99.90;;;;;;4944755;29;20021;-78
2023/03/10 01:05:38;;;;;;;;;;;3.70;99.90;;;;;;4945596;29;20345;-78
2023/03/10 01:08:04;;;;;;;;;;;1.90;99.90;;;;;;4949191;29;20432;-78
2023/03/10 01:10:30;;;;;;;;;;;1.90;99.90;;;;;;4947733;29;19923;-78
2023/03/10 01:12:55;;;;;;;;;;;1.80;99.90;;;;;;4947966;29;19927;-78
2023/03/10 01:15:21;;;;;;;;;;;4.50;99.90;;;;;;4946490;29;19954;-78
2023/03/10 01:17:46;;;;;;;;;;;1.90;99.90;;;;;;4946437;29;19973;-78
2023/03/10 01:20:14;;;;;;;;;;;1.80;99.90;;;;;;4949745;29;19927;-78
2023/03/10 01:22:40;;;;;;;;;;;1.90;99.90;;;;;;4944513;28;20069;-78
2023/03/10 01:25:05;;;;;;;;;;;1.90;99.90;;;;;;4946351;29;20386;-78
2023/03/10 01:27:33;;;;;;;;;;;1.90;99.90;;;;;;4950072;29;19954;-78
2023/03/10 01:29:59;;;;;;;;;;;1.90;99.90;;;;;;4948464;29;20367;-78
2023/03/10 01:32:24;;;;;;;;;;;1.90;99.90;;;;;;4944182;29;19930;-78
2023/03/10 01:34:50;;;;;;;;;;;4.30;99.90;;;;;;4946611;29;19926;-78
2023/03/10 01:37:15;;;;;;;;;;;1.90;99.90;;;;;;4947423;29;19922;-78
2023/03/10 01:39:41;;;;;;;;;;;4.20;99.90;;;;;;4942238;29;19933;-78
2023/03/10 01:42:06;;;;;;;;;;;1.90;99.90;;;;;;4948759;29;20291;-78
2023/03/10 01:44:32;;;;;;;;;;;1.90;99.90;;;;;;4947130;29;20375;-78
2023/03/10 01:46:58;;;;;;;;;;;4.60;99.90;;;;;;4944258;29;20389;-78
2023/03/10 01:49:23;;;;;;;;;;;1.90;99.90;;;;;;4943483;29;20017;-78
2023/03/10 01:51:52;;;;;;;;;;;1.90;99.90;;;;;;4950740;29;19926;-77
2023/03/10 01:54:21;;;;;;;;;;;1.90;99.90;;;;;;4945217;29;19926;-77
2023/03/10 01:56:48;;;;;;;;;;;2.20;99.90;;;;;;4949618;29;19930;-78
2023/03/10 01:59:14;;;;;;;;;;;1.90;99.90;;;;;;4943907;29;20018;-78
2023/03/10 02:01:39;;;;;;;;;;;3.40;99.90;;;;;;4947114;29;20013;-78
2023/03/10 02:04:28;;;;;;;;;;;1.90;99.90;;;;;;4948240;28;20380;-78
2023/03/10 02:06:55;;;;;;;;;;;1.90;99.90;;;;;;4946235;29;20387;-77
2023/03/10 02:09:21;;;;;;;;;;;4.30;99.90;;;;;;4944459;29;19933;-77
2023/03/10 02:11:47;;;;;;;;;;;1.90;99.90;;;;;;4946423;28;20017;-77
2023/03/10 02:14:12;;;;;;;;;;;2.00;99.90;;;;;;4949861;28;20359;-77
2023/03/10 02:16:38;;;;;;;;;;;1.90;99.90;;;;;;4946372;28;20091;-77
2023/03/10 02:19:07;;;;;;;;;;;2.00;99.90;;;;;;4942896;29;19935;-76
2023/03/10 02:21:38;;;;;;;;;;;2.00;99.90;;;;;;4945106;29;19942;-77
2023/03/10 02:24:03;;;;;;;;;;;4.40;99.90;;;;;;4947600;28;19934;-76
2023/03/10 02:26:41;;;;;;;;;;;3.10;99.90;;;;;;4944007;29;19934;-77
2023/03/10 02:29:09;;;;;;;;;;;2.00;99.90;;;;;;4947049;29;20013;-77
2023/03/10 02:31:35;;;;;;;;;;;4.00;99.90;;;;;;4942857;28;19934;-77
2023/03/10 02:34:01;;;;;;;;;;;2.30;99.90;;;;;;4944319;29;20379;-77
2023/03/10 02:36:27;;;;;;;;;;;3.00;99.90;;;;;;4945538;28;19949;-76
2023/03/10 02:38:52;;;;;;;;;;;2.00;99.90;;;;;;4951228;29;20367;-77
2023/03/10 02:41:21;;;;;;;;;;;2.00;99.90;;;;;;4944309;29;19927;-76
2023/03/10 02:43:47;;;;;;;;;;;2.00;99.90;;;;;;4944358;29;19982;-76
2023/03/10 02:46:13;;;;;;;;;;;3.70;99.90;;;;;;4944537;29;20016;-76
2023/03/10 02:48:41;;;;;;;;;;;2.00;99.90;;;;;;4947058;29;19926;-76
2023/03/10 02:51:09;;;;;;;;;;;2.00;99.90;;;;;;4945998;29;19934;-77
2023/03/10 02:53:35;;;;;;;;;;;2.00;99.90;;;;;;4949512;28;19930;-77
2023/03/10 02:56:01;;;;;;;;;;;2.00;99.90;;;;;;4942675;28;20374;-77
2023/03/10 02:58:27;;;;;;;;;;;2.00;99.90;;;;;;4946519;29;19927;-76
2023/03/10 03:00:53;;;;;;;;;;;2.00;99.90;;;;;;4945128;29;19926;-77
2023/03/10 03:03:19;;;;;;;;;;;4.30;99.90;;;;;;4944122;29;20018;-76
2023/03/10 03:05:45;;;;;;;;;;;2.00;99.90;;;;;;4944293;29;19931;-77
2023/03/10 03:08:10;;;;;;;;;;;3.00;99.90;;;;;;4946139;29;19934;-77
2023/03/10 03:10:38;;;;;;;;;;;2.00;99.90;;;;;;4944832;29;20016;-77
2023/03/10 03:13:04;;;;;;;;;;;2.00;99.90;;;;;;4942125;29;20303;-77
2023/03/10 03:15:30;;;;;;;;;;;2.00;99.90;;;;;;4950361;29;19926;-77
2023/03/10 03:17:57;;;;;;;;;;;4.60;99.90;;;;;;4943617;29;19934;-77
2023/03/10 03:20:23;;;;;;;;;;;2.00;99.90;;;;;;4945520;29;19927;-77
2023/03/10 03:22:48;;;;;;;;;;;3.70;99.90;;;;;;4943710;28;20386;-77
2023/03/10 03:25:15;;;;;;;;;;;2.00;99.90;;;;;;4942078;29;19985;-77
2023/03/10 03:27:41;;;;;;;;;;;2.00;99.90;;;;;;4947802;29;19965;-77
2023/03/10 03:30:08;;;;;;;;;;;2.00;99.90;;;;;;4946133;28;19962;-77
2023/03/10 03:32:34;;;;;;;;;;;2.00;99.90;;;;;;4944812;28;19965;-77
2023/03/10 03:35:00;;;;;;;;;;;4.30;99.90;;;;;;4948761;29;19932;-77
2023/03/10 03:37:26;;;;;;;;;;;1.90;99.90;;;;;;4940787;29;20009;-77
2023/03/10 03:39:51;;;;;;;;;;;1.90;99.90;;;;;;4943667;29;19948;-77
2023/03/10 03:42:17;;;;;;;;;;;4.20;99.90;;;;;;4946962;29;19926;-77
2023/03/10 03:44:42;;;;;;;;;;;1.80;99.90;;;;;;4944149;28;19985;-77
2023/03/10 03:47:09;;;;;;;;;;;4.40;99.90;;;;;;4947804;29;20401;-77
2023/03/10 03:49:35;;;;;;;;;;;1.80;99.90;;;;;;4947349;29;20001;-77
2023/03/10 03:52:01;;;;;;;;;;;1.80;99.90;;;;;;4949487;29;19926;-77
2023/03/10 03:54:26;;;;;;;;;;;1.80;99.90;;;;;;4944005;29;19933;-77
2023/03/10 03:56:52;;;;;;;;;;;3.90;99.90;;;;;;4952858;29;20387;-77
2023/03/10 03:59:17;;;;;;;;;;;1.80;99.90;;;;;;4945816;29;19927;-77
2023/03/10 04:01:43;;;;;;;;;;;3.20;99.90;;;;;;4950912;29;19926;-77
2023/03/10 04:04:12;;;;;;;;;;;3.20;99.90;;;;;;4946303;29;19927;-77
2023/03/10 04:06:37;;;;;;;;;;;1.50;99.90;;;;;;4944982;29;19934;-77
2023/03/10 04:09:03;;;;;;;;;;;2.60;99.90;;;;;;4946908;29;19930;-77
2023/03/10 04:11:29;;;;;;;;;;;1.70;99.90;;;;;;4953647;29;19926;-77
2023/03/10 04:13:54;;;;;;;;;;;1.70;99.90;;;;;;4948669;28;19926;-77
2023/03/10 04:16:20;;;;;;;;;;;1.70;99.90;;;;;;4947772;29;20342;-77
2023/03/10 04:18:45;;;;;;;;;;;1.70;99.90;;;;;;4961390;23;20385;-77
2023/03/10 04:21:11;;;;;;;;;;;1.70;99.90;;;;;;4981092;28;19933;-77
2023/03/10 04:23:39;;;;;;;;;;;3.20;99.90;;;;;;4984165;28;19976;-78
2023/03/10 04:26:07;;;;;;;;;;;2.30;99.90;;;;;;4984282;28;19933;-78
2023/03/10 04:28:33;;;;;;;;;;;1.60;99.90;;;;;;4983769;28;19932;-77
2023/03/10 04:31:02;;;;;;;;;;;1.50;99.90;;;;;;4984991;28;19926;-77
2023/03/10 04:33:27;;;;;;;;;;;0.90;99.90;;;;;;4986070;28;19930;-77
2023/03/10 04:35:53;;;;;;;;;;;1.40;99.90;;;;;;4978054;28;19994;-76
2023/03/10 04:38:18;;;;;;;;;;;1.40;99.90;;;;;;4978090;28;19926;-76
2023/03/10 04:40:44;;;;;;;;;;;1.30;99.90;;;;;;4980062;28;19933;-77
2023/03/10 04:43:09;;;;;;;;;;;3.60;99.90;;;;;;4977593;28;19979;-77
2023/03/10 04:45:35;;;;;;;;;;;1.30;99.90;;;;;;4984993;28;19930;-78
2023/03/10 04:48:01;;;;;;;;;;;1.30;99.90;;;;;;4983168;28;19933;-78
2023/03/10 04:50:26;;;;;;;;;;;2.70;99.90;;;;;;4977856;28;19933;-78
2023/03/10 04:52:52;;;;;;;;;;;1.20;99.90;;;;;;4982485;28;19926;-77
2023/03/10 04:55:17;;;;;;;;;;;1.20;99.90;;;;;;4982756;28;19930;-77
2023/03/10 04:57:43;;;;;;;;;;;1.20;99.90;;;;;;4980886;28;19926;-77
2023/03/10 05:00:11;;;;;;;;;;;4.20;99.90;;;;;;4985861;28;20448;-78
2023/03/10 05:02:37;;;;;;;;;;;1.20;99.90;;;;;;4982448;28;19934;-78
2023/03/10 05:05:03;;;;;;;;;;;1.20;99.90;;;;;;4983105;28;20013;-77
2023/03/10 05:07:28;;;;;;;;;;;1.20;99.90;;;;;;4983486;28;19972;-78
2023/03/10 05:09:54;;;;;;;;;;;1.20;99.90;;;;;;4982284;28;19962;-78
2023/03/10 05:12:20;;;;;;;;;;;1.20;99.90;;;;;;4983696;28;19965;-77
2023/03/10 05:14:45;;;;;;;;;;;1.20;99.90;;;;;;4987123;28;20317;-78
2023/03/10 05:17:11;;;;;;;;;;;1.70;99.90;;;;;;4986401;28;19926;-77
2023/03/10 05:19:37;;;;;;;;;;;1.20;99.90;;;;;;4981036;28;19965;-78
2023/03/10 05:22:03;;;;;;;;;;;1.30;99.90;;;;;;4983160;28;19933;-78
2023/03/10 05:24:29;;;;;;;;;;;1.20;99.90;;;;;;4980986;28;19922;-77
2023/03/10 05:26:54;;;;;;;;;;;1.30;99.90;;;;;;4985790;28;20279;-78
2023/03/10 05:29:20;;;;;;;;;;;3.20;99.90;;;;;;4983831;28;20282;-77
2023/03/10 05:31:46;;;;;;;;;;;1.20;99.90;;;;;;4981282;28;20290;-78
2023/03/10 05:34:14;;;;;;;;;;;2.10;99.90;;;;;;4993458;23;19925;-78
2023/03/10 05:36:40;;;;;;;;;;;1.20;99.90;;;;;;4981358;28;19985;-78
2023/03/10 05:39:06;;;;;;;;;;;1.20;99.90;;;;;;4978050;28;19985;-78
2023/03/10 05:41:32;;;;;;;;;;;1.20;99.90;;;;;;4983881;28;19926;-78
2023/03/10 05:43:58;;;;;;;;;;;1.20;99.90;;;;;;4982449;28;20404;-78
2023/03/10 05:46:23;;;;;;;;;;;1.30;99.90;;;;;;4983655;28;20000;-77
2023/03/10 05:48:49;;;;;;;;;;;3.80;99.90;;;;;;4986385;28;19933;-77
2023/03/10 05:51:15;;;;;;;;;;;2.10;99.90;;;;;;4984593;28;19930;-78
2023/03/10 05:53:41;;;;;;;;;;;1.20;99.90;;;;;;4983866;28;19937;-78
2023/03/10 05:56:07;;;;;;;;;;;1.20;99.90;;;;;;4985560;28;19933;-78
2023/03/10 05:58:33;;;;;;;;;;;1.20;99.90;;;;;;4981356;28;20275;-77
2023/03/10 06:00:58;;;;;;;;;;;2.60;99.90;;;;;;4984516;28;19933;-78
2023/03/10 06:03:24;;;;;;;;;;;1.10;99.90;;;;;;4979582;28;19933;-77
2023/03/10 06:05:50;;;;;;;;;;;1.20;99.90;;;;;;4984005;28;20376;-77
2023/03/10 06:08:15;;;;;;;;;;;1.10;99.90;;;;;;4982910;28;19933;-77
2023/03/10 06:10:41;;;;;;;;;;;1.10;99.90;;;;;;4981352;28;19926;-77
2023/03/10 06:13:06;;;;;;;;;;;1.10;99.90;;;;;;4984317;28;20384;-77
2023/03/10 06:15:32;;;;;;;;;;;1.70;99.90;;;;;;4980794;28;19976;-77
2023/03/10 06:17:58;;;;;;;;;;;1.10;99.90;;;;;;4980222;28;19926;-77
2023/03/10 06:20:23;;;;;;;;;;;1.10;99.90;;;;;;4980848;28;20013;-78
2023/03/10 06:22:50;;;;;;;;;;;1.10;99.90;;;;;;4983727;28;19949;-77
2023/03/10 06:25:15;;;;;;;;;;;1.00;99.90;;;;;;4978862;28;20042;-77
2023/03/10 06:27:41;;;;;;;;;;;1.00;99.90;;;;;;4982012;28;20003;-77
2023/03/10 06:30:06;;;;;;;;;;;1.00;99.90;;;;;;4983586;28;20483;-77
2023/03/10 06:32:35;;;;;;;;;;;1.00;99.90;;;;;;4979585;28;19926;-78
2023/03/10 06:35:01;;;;;;;;;;;0.90;99.90;;;;;;4979051;28;19949;-77
2023/03/10 06:37:27;;;;;;;;;;;1.70;99.90;;;;;;5107787;23;20803;-77
2023/03/10 06:39:55;;;;;;;;;;;1.70;99.90;;;;;;4965037;28;19930;-77
2023/03/10 06:42:21;;;;;;;;;;;1.00;99.90;;;;;;4965438;28;19981;-77
2023/03/10 06:44:46;;;;;;;;;;;0.90;99.90;;;;;;4966173;28;20044;-78
2023/03/10 06:47:12;;;;;;;;;;;1.80;99.90;;;;;;4968507;23;20464;-80
2023/03/10 06:49:41;;;;;;;;;;;0.90;99.90;;;;;;4974242;28;19930;-77
2023/03/10 06:52:07;;;;;;;;;;;0.90;99.90;;;;;;4946254;29;19982;-77
2023/03/10 06:54:32;;;;;;;;;;;2.30;99.90;;;;;;4941936;29;20299;-77
2023/03/10 06:56:58;;;;;;;;;;;1.60;99.90;;;;;;4948769;29;20387;-77
2023/03/10 06:59:23;;;;;;;;;;;0.90;99.90;;;;;;4950490;29;19934;-76
2023/03/10 07:01:49;;;;;;;;;;;0.90;99.90;;;;;;4942784;29;19938;-77
2023/03/10 07:04:14;;;;;;;;;;;3.20;99.90;;;;;;4948072;29;19931;-77
2023/03/10 07:06:40;;;;;;;;;;;3.20;99.90;;;;;;4943895;29;19926;-76
2023/03/10 07:09:05;;;;;;;;;;;0.90;99.90;;;;;;4941409;29;20023;-73
2023/03/10 07:11:31;;;;;;;;;;;1.00;99.90;;;;;;4941842;29;20425;-80
2023/03/10 07:13:57;;;;;;;;;;;1.00;99.90;;;;;;4948025;29;19926;-78
2023/03/10 07:16:22;;;;;;;;;;;1.00;99.90;;;;;;4940236;29;19927;-81
2023/03/10 07:18:48;;;;;;;;;;;1.00;99.90;;;;;;4941864;28;19927;-85
2023/03/10 07:21:15;;;;;;;;;;;2.60;99.90;;;;;;4977016;28;19985;-86
2023/03/10 07:23:41;;;;;;;;;;;1.00;99.90;;;;;;4980790;28;20010;-84
2023/03/10 07:26:07;;;;;;;;;;;1.10;99.90;;;;;;4951339;29;20065;-79
2023/03/10 07:28:34;;;;;;;;;;;1.10;99.90;;;;;;4949381;28;19996;-81
2023/03/10 07:31:03;;;;;;;;;;;1.10;99.90;;;;;;4954612;29;20323;-78
2023/03/10 07:33:29;;;;;;;;;;;1.10;99.90;;;;;;4955657;29;19926;-78
2023/03/10 07:35:54;;;;;;;;;;;1.20;99.90;;;;;;4954496;29;19931;-76
2023/03/10 07:38:20;;;;;;;;;;;1.20;99.90;;;;;;4944391;29;19930;-77
2023/03/10 07:40:45;;;;;;;;;;;1.30;99.90;;;;;;4951940;29;19933;-79
2023/03/10 07:43:13;;;;;;;;;;;2.90;99.90;;;;;;4950117;28;19926;-77
2023/03/10 07:45:39;;;;;;;;;;;1.20;99.90;;;;;;4948884;29;20299;-82
2023/03/10 07:48:06;;;;;;;;;;;1.40;99.90;;;;;;4946452;29;19962;-82
2023/03/10 07:50:31;;;;;;;;;;;1.30;99.90;;;;;;4948271;28;19926;-82
2023/03/10 07:52:57;;;;;;;;;;;1.30;99.90;;;;;;4948071;29;19926;-78
2023/03/10 07:55:23;;;;;;;;;;;1.40;99.90;;;;;;4948168;29;19969;-80
2023/03/10 07:57:51;;;;;;;;;;;1.30;99.90;;;;;;4946700;28;20440;-79
2023/03/10 08:00:20;;;;;;;;;;;1.40;99.90;;;;;;4947346;29;19934;-85
2023/03/10 08:02:45;;;;;;;;;;;1.50;99.90;;;;;;4978352;28;19926;-80
2023/03/10 08:05:11;;;;;;;;;;;1.50;99.90;;;;;;4945623;29;20445;-79
2023/03/10 08:07:36;;;;;;;;;;;1.50;99.90;;;;;;4951856;29;20371;-77
2023/03/10 08:10:02;;;;;;;;;;;1.50;99.90;;;;;;4947548;29;19938;-78
2023/03/10 08:12:27;;;;;;;;;;;1.50;99.90;;;;;;4951123;29;19934;-76
2023/03/10 08:14:53;;;;;;;;;;;1.50;99.90;;;;;;4954773;29;19926;-76
2023/03/10 08:17:18;;;;;;;;;;;1.50;99.90;;;;;;4946350;29;19977;-77
2023/03/10 08:19:47;;;;;;;;;;;1.50;99.90;;;;;;4955179;28;19926;-83
2023/03/10 08:22:13;;;;;;;;;;;1.30;99.90;;;;;;4940352;29;19955;-79
2023/03/10 08:24:38;;;;;;;;;;;1.50;99.90;;;;;;4982061;28;19930;-78
2023/03/10 08:27:04;;;;;;;;;;;1.50;99.90;;;;;;4947137;29;20385;-79
2023/03/10 08:29:30;;;;;;;;;;;1.50;99.90;;;;;;4945691;29;19985;-77
2023/03/10 08:31:56;;;;;;;;;;;1.50;99.90;;;;;;4946650;28;19934;-78
2023/03/10 08:34:22;;;;;;;;;;;1.60;99.90;;;;;;4952399;29;19933;-78
2023/03/10 08:36:47;;;;;;;;;;;3.30;99.90;;;;;;4950268;29;19935;-77
2023/03/10 08:39:13;;;;;;;;;;;1.60;99.90;;;;;;4946924;29;20008;-75
2023/03/10 08:41:45;;;;;;;;;;;3.30;99.90;;;;;;4942512;29;20070;-76
2023/03/10 08:44:14;;;;;;;;;;;1.60;99.90;;;;;;4977636;28;19953;-75
2023/03/10 08:46:43;;;;;;;;;;;1.60;99.90;;;;;;4978249;28;19945;-74
2023/03/10 08:49:09;;;;;;;;;;;1.60;99.90;;;;;;4948944;29;19934;-75
2023/03/10 08:51:35;;;;;;;;;;;1.60;99.90;;;;;;4947919;28;19927;-74
2023/03/10 08:54:01;;;;;;;;;;;1.60;99.90;;;;;;4946142;29;20398;-73
2023/03/10 08:56:26;;;;;;;;;;;1.70;99.90;;;;;;4949750;28;19933;-73
2023/03/10 08:58:57;;;;;;;;;;;1.70;99.90;;;;;;4943925;28;19927;-73
2023/03/10 09:01:24;;;;;;;;;;;3.90;99.90;;;;;;4942903;29;20383;-72
2023/03/10 09:03:50;;;;;;;;;;;1.90;99.90;;;;;;4941924;29;20016;-73
2023/03/10 09:06:15;;;;;;;;;;;3.60;99.90;;;;;;4979516;28;20447;-73
2023/03/10 09:08:41;;;;;;;;;;;1.80;99.90;;;;;;4945736;29;20433;-72
2023/03/10 09:11:08;;;;;;;;;;;3.20;99.90;;;;;;4938426;29;19945;-73
2023/03/10 09:13:33;;;;;;;;;;;2.70;99.90;;;;;;4976557;28;19955;-74
2023/03/10 09:15:59;;;;;;;;;;;3.80;99.90;;;;;;4947518;29;19923;-73
2023/03/10 09:18:24;;;;;;;;;;;1.80;99.90;;;;;;4945783;29;19973;-74
2023/03/10 09:20:50;;;;;;;;;;;1.80;99.90;;;;;;4949505;29;20421;-73
2023/03/10 09:23:16;;;;;;;;;;;1.80;99.90;;;;;;4947349;29;19922;-73
2023/03/10 09:25:41;;;;;;;;;;;1.80;99.90;;;;;;4947822;29;19933;-74
2023/03/10 09:28:08;;;;;;;;;;;4.20;99.90;;;;;;4949961;29;20438;-74
2023/03/10 09:30:36;;;;;;;;;;;1.80;99.90;;;;;;4945976;29;19974;-74
2023/03/10 09:33:06;;;;;;;;;;;1.80;99.90;;;;;;4947839;29;20027;-73
2023/03/10 09:35:32;;;;;;;;;;;1.80;99.90;;;;;;4945817;28;19933;-73
2023/03/10 09:37:57;;;;;;;;;;;1.90;99.90;;;;;;4981248;28;19927;-73
2023/03/10 09:40:23;;;;;;;;;;;1.90;99.90;;;;;;4945655;29;19971;-73
2023/03/10 09:43:06;;;;;;;;;;;2.00;99.90;;;;;;4945828;28;19927;-74
2023/03/10 09:45:54;;;;;;;;;;;2.10;99.90;;;;;;4946812;28;20445;-74
2023/03/10 09:48:25;;;;;;;;;;;2.30;99.90;;;;;;4948482;29;19973;-74
2023/03/10 09:50:55;;;;;;;;;;;2.30;99.90;;;;;;4943242;28;20203;-74
2023/03/10 09:53:39;;;;;;;;;;;4.00;99.90;;;;;;4975556;28;19961;-74
2023/03/10 09:56:10;;;;;;;;;;;2.20;99.90;;;;;;4948541;29;20405;-74
2023/03/10 09:58:45;;;;;;;;;;;2.20;99.90;;;;;;4973383;28;19927;-74
2023/03/10 10:01:15;;;;;;;;;;;2.10;99.90;;;;;;4944879;29;19926;-77
2023/03/10 10:03:52;;;;;;;;;;;2.10;99.90;;;;;;4945586;29;19973;-74
2023/03/10 10:06:20;;;;;;;;;;;2.20;99.90;;;;;;4945723;29;20681;-73
2023/03/10 10:08:49;;;;;;;;;;;2.30;99.90;;;;;;4948221;29;20362;-75
2023/03/10 10:11:18;;;;;;;;;;;2.30;99.90;;;;;;4954205;28;19929;-80
2023/03/10 10:13:43;;;;;;;;;;;2.30;99.90;;;;;;4942649;29;20361;-77
2023/03/10 10:16:30;;;;;;;;;;;4.70;99.90;;;;;;4948939;29;19926;-85
2023/03/10 10:19:01;;;;;;;;;;;1.40;99.90;;;;;;4944041;29;19926;-89
2023/03/10 10:21:46;;;;;;;;;;;2.50;99.90;;;;;;4941332;29;19923;-85
2023/03/10 10:24:12;;;;;;;;;;;2.50;99.90;;;;;;4945915;29;19927;-85
2023/03/10 10:26:37;;;;;;;;;;;2.50;99.90;;;;;;4949214;28;20485;-83
2023/03/10 10:29:22;;;;;;;;;;;2.50;99.90;;;;;;4950959;28;19963;-87
2023/03/10 10:32:20;;;;;;;;;;;2.50;99.90;;;;;;4953539;28;20058;-90
2023/03/10 10:34:46;;;;;;;;;;;2.50;99.90;;;;;;4931042;29;19969;-84
2023/03/10 10:37:22;;;;;;;;;;;3.20;99.90;;;;;;4953366;29;19973;-82
2023/03/10 10:39:49;;;;;;;;;;;2.60;99.90;;;;;;4950051;29;19933;-84
2023/03/10 10:42:18;;;;;;;;;;;2.50;99.90;;;;;;4977496;28;19930;-81
2023/03/10 10:44:44;;;;;;;;;;;2.50;99.90;;;;;;4947321;29;19977;-81
2023/03/10 10:47:27;;;;;;;;;;;2.60;99.90;;;;;;4980972;28;19942;-88
2023/03/10 10:49:53;;;;;;;;;;;2.80;99.90;;;;;;4950766;29;19931;-82
2023/03/10 10:52:20;;;;;;;;;;;2.90;99.90;;;;;;4945800;29;20298;-81
2023/03/10 10:54:57;;;;;;;;;;;4.70;99.90;;;;;;4941798;29;19927;-77
2023/03/10 10:57:46;;;;;;;;;;;3.00;99.90;;;;;;4951307;29;19934;-81
2023/03/10 11:00:13;;;;;;;;;;;3.20;99.90;;;;;;5095756;23;20442;-90
2023/03/10 11:02:39;;;;;;;;;;;5.60;99.90;;;;;;4945997;29;19935;-79
2023/03/10 11:05:10;;;;;;;;;;;3.50;99.90;;;;;;4943736;29;20374;-82
2023/03/10 11:07:36;;;;;;;;;;;3.50;99.90;;;;;;4945440;29;19934;-80
2023/03/10 11:10:01;;;;;;;;;;;5.60;99.90;;;;;;4943393;29;19926;-79
2023/03/10 11:12:46;;;;;;;;;;;5.40;99.90;;;;;;4935085;29;20364;-81
2023/03/10 11:15:18;;;;;;;;;;;3.70;99.90;;;;;;4927916;29;20030;-78
2023/03/10 11:17:50;;;;;;;;;;;6.40;99.90;;;;;;4950292;29;19926;-84
2023/03/10 11:20:19;;;;;;;;;;;3.70;99.90;;;;;;4929336;29;19985;-80
2023/03/10 11:22:48;;;;;;;;;;;3.60;99.90;;;;;;4948322;29;19927;-81
2023/03/10 11:25:33;;;;;;;;;;;3.60;99.90;;;;;;4931390;29;19927;-82
2023/03/10 11:28:13;;;;;;;;;;;3.70;99.90;;;;;;4940636;29;19927;-75
2023/03/10 11:30:44;;;;;;;;;;;3.60;99.90;;;;;;4935599;29;19970;-76
2023/03/10 11:33:13;;;;;;;;;;;3.50;99.90;;;;;;4949010;29;20387;-75
2023/03/10 11:35:44;;;;;;;;;;;3.50;99.90;;;;;;4951022;29;20820;-76
2023/03/10 11:38:27;;;;;;;;;;;3.30;99.90;;;;;;4949984;29;19931;-77
2023/03/10 11:40:55;;;;;;;;;;;3.30;99.90;;;;;;4947971;29;19926;-77
2023/03/10 11:43:30;;;;;;;;;;;5.00;99.90;;;;;;4931292;29;20366;-74
2023/03/10 11:45:59;;;;;;;;;;;3.10;99.90;;;;;;4930609;29;19933;-74
2023/03/10 11:48:30;;;;;;;;;;;3.00;99.90;;;;;;4946243;29;21522;-74
2023/03/10 11:50:58;;;;;;;;;;;3.00;99.90;;;;;;4950313;29;19927;-74
2023/03/10 11:53:38;;;;;;;;;;;2.90;99.90;;;;;;4934257;29;19927;-74
2023/03/10 11:56:04;;;;;;;;;;;2.80;99.90;;;;;;4936796;29;19930;-73
2023/03/10 11:58:48;;;;;;;;;;;2.70;99.90;;;;;;4948847;29;19989;-75
2023/03/10 12:01:23;;;;;;;;;;;2.70;99.90;;;;;;4952102;29;19965;-74
2023/03/10 12:04:07;;;;;;;;;;;5.00;99.90;;;;;;4935163;29;20401;-72
2023/03/10 12:06:37;;;;;;;;;;;2.60;99.90;;;;;;4950194;28;19926;-72
2023/03/10 12:09:10;;;;;;;;;;;2.60;99.90;;;;;;4949032;29;19927;-72
2023/03/10 12:11:35;;;;;;;;;;;2.70;99.90;;;;;;4946527;29;19934;-70
2023/03/10 12:14:01;;;;;;;;;;;4.20;99.90;;;;;;4934571;29;20442;-73
2023/03/10 12:16:32;;;;;;;;;;;3.70;99.90;;;;;;4947692;29;20017;-71
2023/03/10 12:18:58;;;;;;;;;;;2.70;99.90;;;;;;4934545;29;19953;-71
2023/03/10 12:21:28;;;;;;;;;;;2.70;99.90;;;;;;4938159;29;19934;-70
2023/03/10 12:23:58;;;;;;;;;;;2.70;99.90;;;;;;4938307;29;19949;-71
2023/03/10 12:26:39;;;;;;;;;;;2.70;99.90;;;;;;4947219;29;20010;-72
2023/03/10 12:29:20;;;;;;;;;;;2.60;99.90;;;;;;4933189;29;19926;-73
2023/03/10 12:31:52;;;;;;;;;;;2.60;99.90;;;;;;4945995;29;19927;-73
2023/03/10 12:34:22;;;;;;;;;;;2.60;99.90;;;;;;4937179;29;20386;-72
2023/03/10 12:36:50;;;;;;;;;;;2.60;99.90;;;;;;4949517;29;20002;-73
2023/03/10 12:39:25;;;;;;;;;;;2.60;99.90;;;;;;4937633;29;19931;-72
2023/03/10 12:41:52;;;;;;;;;;;2.60;99.90;;;;;;4934619;29;19942;-73
2023/03/10 12:44:33;;;;;;;;;;;2.50;99.90;;;;;;4938601;29;20293;-72
2023/03/10 12:47:08;;;;;;;;;;;2.50;99.90;;;;;;4945271;29;20013;-71
2023/03/10 12:49:40;;;;;;;;;;;1.70;99.90;;;;;;4950232;29;19927;-72
2023/03/10 12:52:05;;;;;;;;;;;2.40;99.90;;;;;;4946131;29;20434;-76
2023/03/10 12:54:46;;;;;;;;;;;2.40;99.90;;;;;;4951277;29;19927;-73
2023/03/10 12:57:23;;;;;;;;;;;2.30;99.90;;;;;;4952412;29;19926;-82
2023/03/10 12:59:55;;;;;;;;;;;2.30;99.90;;;;;;4934722;29;19931;-75
2023/03/10 13:02:28;;;;;;;;;;;2.30;99.90;;;;;;4933845;29;19973;-73
2023/03/10 13:04:57;;;;;;;;;;;2.30;99.90;;;;;;4934468;29;20282;-72
2023/03/10 13:07:23;;;;;;;;;;;2.30;99.90;;;;;;4935044;29;19927;-71
2023/03/10 13:09:49;;;;;;;;;;;3.80;99.90;;;;;;4936416;29;20410;-73
2023/03/10 13:12:17;;;;;;;;;;;4.20;99.90;;;;;;4953932;29;19942;-76
2023/03/10 13:14:49;;;;;;;;;;;2.00;99.90;;;;;;4936664;29;19927;-74
2023/03/10 13:17:23;;;;;;;;;;;2.30;99.90;;;;;;4933697;29;19931;-71
2023/03/10 13:19:56;;;;;;;;;;;2.40;99.90;;;;;;4937149;29;19927;-73
2023/03/10 13:22:21;;;;;;;;;;;2.40;99.90;;;;;;4942595;29;20461;-75
2023/03/10 13:24:55;;;;;;;;;;;2.40;99.90;;;;;;4946713;29;19926;-73
2023/03/10 13:27:22;;;;;;;;;;;2.40;99.90;;;;;;4930080;29;19934;-76
2023/03/10 13:29:58;;;;;;;;;;;2.40;99.90;;;;;;4929629;29;19933;-77
2023/03/10 13:32:27;;;;;;;;;;;2.40;99.90;;;;;;4950094;29;20027;-78
2023/03/10 13:34:54;;;;;;;;;;;3.40;99.90;;;;;;4937063;29;19931;-73
2023/03/10 13:37:20;;;;;;;;;;;2.30;99.90;;;;;;4933484;29;20014;-73
2023/03/10 13:39:45;;;;;;;;;;;3.60;99.90;;;;;;4934353;29;20075;-72
2023/03/10 13:42:18;;;;;;;;;;;3.90;99.90;;;;;;4947951;29;19927;-76
2023/03/10 13:44:46;;;;;;;;;;;2.00;99.90;;;;;;4933103;29;19927;-74
2023/03/10 13:47:16;;;;;;;;;;;1.90;99.90;;;;;;4949367;29;19926;-74
2023/03/10 13:49:46;;;;;;;;;;;2.90;99.90;;;;;;4936500;29;20084;-74
2023/03/10 13:52:14;;;;;;;;;;;1.80;99.90;;;;;;4933260;29;20017;-74
2023/03/10 13:54:40;;;;;;;;;;;2.40;99.90;;;;;;4929588;29;20357;-75
2023/03/10 13:57:25;;;;;;;;;;;1.70;99.90;;;;;;4936450;29;20397;-75
2023/03/10 13:59:52;;;;;;;;;;;1.60;99.90;;;;;;4943218;29;19934;-74
2023/03/10 14:02:32;;;;;;;;;;;1.60;99.90;;;;;;4946121;29;20009;-73
2023/03/10 14:04:59;;;;;;;;;;;1.60;99.90;;;;;;4935741;29;19926;-73
2023/03/10 14:07:35;;;;;;;;;;;1.60;99.90;;;;;;4948376;29;20358;-74
2023/03/10 14:10:03;;;;;;;;;;;1.60;99.90;;;;;;4943074;29;19934;-79
2023/03/10 14:12:42;;;;;;;;;;;1.60;99.90;;;;;;4935057;29;20278;-72
2023/03/10 14:15:09;;;;;;;;;;;1.60;99.90;;;;;;4949072;29;19969;-71
2023/03/10 14:17:34;;;;;;;;;;;2.90;99.90;;;;;;4932737;29;19935;-71
2023/03/10 14:20:00;;;;;;;;;;;1.60;99.90;;;;;;4929777;29;19954;-72
2023/03/10 14:22:28;;;;;;;;;;;1.60;99.90;;;;;;4932538;29;19927;-73
2023/03/10 14:24:55;;;;;;;;;;;1.60;99.90;;;;;;4945430;29;19927;-71
2023/03/10 14:27:21;;;;;;;;;;;1.50;99.90;;;;;;4935126;29;19926;-70
2023/03/10 14:29:50;;;;;;;;;;;1.40;99.90;;;;;;4947964;28;19934;-72
2023/03/10 14:32:19;;;;;;;;;;;1.40;99.90;;;;;;4946142;29;19927;-71
2023/03/10 14:34:45;;;;;;;;;;;1.40;99.90;;;;;;4944866;29;20001;-71
2023/03/10 14:37:11;;;;;;;;;;;1.50;99.90;;;;;;4933951;29;19933;-72